sensor_id;sensor_type;location;lat;lon;timestamp;pressure;altitude;pressure_sealevel;temperature;humidity
11038;BME280;5572;49.540;11.932;2023-08-01T00:01:40;93855.22;;;17.08;100.00
11038;BME280;5572;49.540;11.932;2023-08-01T00:04:06;93854.44;;;17.04;100.00
11038;BME280;5572;49.540;11.932;2023-08-01T00:06:33;93866.16;;;17.01;100.00
11038;BME280;5572;49.540;11.932;2023-08-01T00:08:59;93867.72;;;17.05;100.00
11038;BME280;5572;49.540;11.932;2023-08-01T00:11:27;93877.47;;;16.92;100.00
11038;BME280;5572;49.540;11.932;2023-08-01T00:13:54;93889.97;;;16.93;100.00
11038;BME280;5572;49.540;11.932;2023-08-01T00:16:21;93883.72;;;16.96;100.00
11038;BME280;5572;49.540;11.932;2023-08-01T00:18:47;93883.72;;;16.96;100.00
11038;BME280;5572;49.540;11.932;2023-08-01T00:21:14;93891.13;;;16.96;100.00
11038;BME280;5572;49.540;11.932;2023-08-01T00:23:40;93893.47;;;16.83;100.00
11038;BME280;5572;49.540;11.932;2023-08-01T00:26:07;93902.06;;;16.89;100.00
11038;BME280;5572;49.540;11.932;2023-08-01T00:28:35;93934.41;;;16.83;100.00
11038;BME280;5572;49.540;11.932;2023-08-01T00:31:03;93946.50;;;16.96;100.00
11038;BME280;5572;49.540;11.932;2023-08-01T00:33:30;93956.63;;;16.85;100.00
11038;BME280;5572;49.540;11.932;2023-08-01T00:35:56;93960.94;;;16.69;100.00
11038;BME280;5572;49.540;11.932;2023-08-01T00:38:23;93966.78;;;16.78;100.00
11038;BME280;5572;49.540;11.932;2023-08-01T00:40:49;93970.66;;;16.91;100.00
11038;BME280;5572;49.540;11.932;2023-08-01T00:43:16;93981.19;;;16.89;100.00
11038;BME280;5572;49.540;11.932;2023-08-01T00:45:44;93971.84;;;16.90;100.00
11038;BME280;5572;49.540;11.932;2023-08-01T00:48:12;93954.66;;;17.00;100.00
11038;BME280;5572;49.540;11.932;2023-08-01T00:50:39;93975.31;;;17.04;100.00
11038;BME280;5572;49.540;11.932;2023-08-01T00:53:06;93964.41;;;17.04;100.00
11038;BME280;5572;49.540;11.932;2023-08-01T00:55:33;93952.66;;;17.21;100.00
11038;BME280;5572;49.540;11.932;2023-08-01T00:58:01;93960.47;;;17.19;100.00
11038;BME280;5572;49.540;11.932;2023-08-01T01:00:27;93952.69;;;17.31;100.00
11038;BME280;5572;49.540;11.932;2023-08-01T01:02:56;93957.34;;;17.24;100.00
11038;BME280;5572;49.540;11.932;2023-08-01T01:05:24;93968.28;;;17.24;100.00
11038;BME280;5572;49.540;11.932;2023-08-01T01:07:52;93971.78;;;17.24;100.00
11038;BME280;5572;49.540;11.932;2023-08-01T01:10:19;93978.78;;;17.32;100.00
11038;BME280;5572;49.540;11.932;2023-08-01T01:12:45;93969.81;;;17.18;100.00
11038;BME280;5572;49.540;11.932;2023-08-01T01:15:12;93962.81;;;17.14;100.00
11038;BME280;5572;49.540;11.932;2023-08-01T01:17:39;93966.72;;;17.20;100.00
11038;BME280;5572;49.540;11.932;2023-08-01T01:20:08;93962.81;;;17.14;100.00
11038;BME280;5572;49.540;11.932;2023-08-01T01:22:36;93965.91;;;17.23;100.00
11038;BME280;5572;49.540;11.932;2023-08-01T01:25:04;93974.16;;;16.98;100.00
11038;BME280;5572;49.540;11.932;2023-08-01T01:27:33;93976.88;;;17.09;100.00
11038;BME280;5572;49.540;11.932;2023-08-01T01:30:01;93971.81;;;17.11;100.00
11038;BME280;5572;49.540;11.932;2023-08-01T01:32:29;93956.59;;;17.10;100.00
11038;BME280;5572;49.540;11.932;2023-08-01T01:34:56;93980.75;;;17.11;100.00
11038;BME280;5572;49.540;11.932;2023-08-01T01:37:24;93973.34;;;17.05;100.00
11038;BME280;5572;49.540;11.932;2023-08-01T01:39:52;93971.78;;;17.07;100.00
11038;BME280;5572;49.540;11.932;2023-08-01T01:42:19;93973.75;;;16.93;100.00
11038;BME280;5572;49.540;11.932;2023-08-01T01:44:45;93981.56;;;16.94;100.00
11038;BME280;5572;49.540;11.932;2023-08-01T01:47:12;93977.69;;;16.95;100.00
11038;BME280;5572;49.540;11.932;2023-08-01T01:49:39;93973.00;;;16.92;100.00
11038;BME280;5572;49.540;11.932;2023-08-01T01:52:06;93957.00;;;16.98;100.00
11038;BME280;5572;49.540;11.932;2023-08-01T01:54:33;93957.41;;;16.89;100.00
11038;BME280;5572;49.540;11.932;2023-08-01T01:57:01;93961.69;;;17.01;100.00
11038;BME280;5572;49.540;11.932;2023-08-01T01:59:27;93964.78;;;16.99;100.00
11038;BME280;5572;49.540;11.932;2023-08-01T02:01:54;93961.31;;;16.95;100.00
11038;BME280;5572;49.540;11.932;2023-08-01T02:04:20;93958.16;;;16.97;100.00
11038;BME280;5572;49.540;11.932;2023-08-01T02:06:48;93964.41;;;16.94;100.00
11038;BME280;5572;49.540;11.932;2023-08-01T02:09:14;93965.97;;;16.98;100.00
11038;BME280;5572;49.540;11.932;2023-08-01T02:11:41;93961.69;;;17.01;100.00
11038;BME280;5572;49.540;11.932;2023-08-01T02:14:08;93960.53;;;16.88;100.00
11038;BME280;5572;49.540;11.932;2023-08-01T02:16:35;93960.91;;;16.90;100.00
11038;BME280;5572;49.540;11.932;2023-08-01T02:19:02;93959.34;;;16.89;100.00
11038;BME280;5572;49.540;11.932;2023-08-01T02:21:28;93959.31;;;17.03;100.00
11038;BME280;5572;49.540;11.932;2023-08-01T02:23:55;93949.22;;;17.00;100.00
11038;BME280;5572;49.540;11.932;2023-08-01T02:26:21;93941.78;;;17.04;100.00
11038;BME280;5572;49.540;11.932;2023-08-01T02:28:49;93934.00;;;16.99;100.00
11038;BME280;5572;49.540;11.932;2023-08-01T02:31:17;93938.28;;;17.07;100.00
11038;BME280;5572;49.540;11.932;2023-08-01T02:33:43;93929.72;;;16.98;100.00
11038;BME280;5572;49.540;11.932;2023-08-01T02:36:10;93933.63;;;16.83;100.00
11038;BME280;5572;49.540;11.932;2023-08-01T02:38:36;93928.16;;;16.83;100.00
11038;BME280;5572;49.540;11.932;2023-08-01T02:41:03;93930.16;;;16.72;100.00
11038;BME280;5572;49.540;11.932;2023-08-01T02:43:29;93921.56;;;16.77;100.00
11038;BME280;5572;49.540;11.932;2023-08-01T02:45:56;93915.69;;;16.89;100.00
11038;BME280;5572;49.540;11.932;2023-08-01T02:48:26;93908.31;;;16.79;100.00
11038;BME280;5572;49.540;11.932;2023-08-01T02:50:54;93904.78;;;16.85;100.00
11038;BME280;5572;49.540;11.932;2023-08-01T02:53:21;93906.72;;;16.88;100.00
11038;BME280;5572;49.540;11.932;2023-08-01T02:55:47;93900.47;;;16.91;100.00
11038;BME280;5572;49.540;11.932;2023-08-01T02:58:14;93888.00;;;16.94;100.00
11038;BME280;5572;49.540;11.932;2023-08-01T03:00:41;93888.41;;;16.89;100.00
11038;BME280;5572;49.540;11.932;2023-08-01T03:03:07;93881.38;;;16.91;100.00
11038;BME280;5572;49.540;11.932;2023-08-01T03:05:37;93884.53;;;16.86;100.00
11038;BME280;5572;49.540;11.932;2023-08-01T03:08:04;93877.88;;;16.91;100.00
11038;BME280;5572;49.540;11.932;2023-08-01T03:10:30;93883.75;;;16.82;100.00
11038;BME280;5572;49.540;11.932;2023-08-01T03:12:57;93880.25;;;16.82;100.00
11038;BME280;5572;49.540;11.932;2023-08-01T03:15:24;93871.28;;;16.78;100.00
11038;BME280;5572;49.540;11.932;2023-08-01T03:17:50;93876.72;;;16.78;100.00
11038;BME280;5572;49.540;11.932;2023-08-01T03:20:17;93866.59;;;16.89;100.00
11038;BME280;5572;49.540;11.932;2023-08-01T03:22:45;93868.91;;;16.90;100.00
11038;BME280;5572;49.540;11.932;2023-08-01T03:25:11;93861.91;;;16.79;100.00
11038;BME280;5572;49.540;11.932;2023-08-01T03:27:38;93856.47;;;16.65;100.00
11038;BME280;5572;49.540;11.932;2023-08-01T03:30:06;93840.88;;;16.72;100.00
11038;BME280;5572;49.540;11.932;2023-08-01T03:32:34;93847.94;;;16.56;100.00
11038;BME280;5572;49.540;11.932;2023-08-01T03:35:02;93833.91;;;16.61;100.00
11038;BME280;5572;49.540;11.932;2023-08-01T03:37:29;93813.59;;;16.72;100.00
11038;BME280;5572;49.540;11.932;2023-08-01T03:39:57;93820.25;;;16.64;100.00
11038;BME280;5572;49.540;11.932;2023-08-01T03:42:23;93816.72;;;16.64;100.00
11038;BME280;5572;49.540;11.932;2023-08-01T03:44:50;93795.28;;;16.69;100.00
11038;BME280;5572;49.540;11.932;2023-08-01T03:47:17;93804.66;;;16.75;100.00
11038;BME280;5572;49.540;11.932;2023-08-01T03:49:43;93801.94;;;16.72;100.00
11038;BME280;5572;49.540;11.932;2023-08-01T03:52:10;93774.28;;;16.66;100.00
11038;BME280;5572;49.540;11.932;2023-08-01T03:54:37;93739.91;;;16.86;100.00
11038;BME280;5572;49.540;11.932;2023-08-01T03:57:05;93740.34;;;16.74;100.00
11038;BME280;5572;49.540;11.932;2023-08-01T03:59:31;93728.66;;;16.70;100.00
11038;BME280;5572;49.540;11.932;2023-08-01T04:01:58;93718.50;;;16.78;100.00
11038;BME280;5572;49.540;11.932;2023-08-01T04:04:25;93724.78;;;16.68;100.00
11038;BME280;5572;49.540;11.932;2023-08-01T04:06:51;93729.06;;;16.65;100.00
11038;BME280;5572;49.540;11.932;2023-08-01T04:09:18;93706.47;;;16.72;100.00
11038;BME280;5572;49.540;11.932;2023-08-01T04:11:45;93688.94;;;16.66;100.00
11038;BME280;5572;49.540;11.932;2023-08-01T04:14:13;93693.97;;;16.71;100.00
11038;BME280;5572;49.540;11.932;2023-08-01T04:16:40;93678.00;;;16.66;100.00
11038;BME280;5572;49.540;11.932;2023-08-01T04:19:06;93681.13;;;16.71;100.00
11038;BME280;5572;49.540;11.932;2023-08-01T04:21:33;93684.25;;;16.70;100.00
11038;BME280;5572;49.540;11.932;2023-08-01T04:23:59;93674.47;;;16.76;100.00
11038;BME280;5572;49.540;11.932;2023-08-01T04:26:25;93673.69;;;16.75;100.00
11038;BME280;5572;49.540;11.932;2023-08-01T04:28:52;93674.88;;;16.74;100.00
11038;BME280;5572;49.540;11.932;2023-08-01T04:31:20;93647.63;;;16.64;100.00
11038;BME280;5572;49.540;11.932;2023-08-01T04:33:46;93647.25;;;16.65;100.00
11038;BME280;5572;49.540;11.932;2023-08-01T04:36:13;93630.84;;;16.69;100.00
11038;BME280;5572;49.540;11.932;2023-08-01T04:38:39;93627.34;;;16.72;100.00
11038;BME280;5572;49.540;11.932;2023-08-01T04:41:06;93628.88;;;16.73;100.00
11038;BME280;5572;49.540;11.932;2023-08-01T04:43:33;93611.72;;;16.76;100.00
11038;BME280;5572;49.540;11.932;2023-08-01T04:45:59;93603.56;;;16.72;100.00
11038;BME280;5572;49.540;11.932;2023-08-01T04:48:27;93584.84;;;16.74;100.00
11038;BME280;5572;49.540;11.932;2023-08-01T04:50:54;93592.69;;;16.69;100.00
11038;BME280;5572;49.540;11.932;2023-08-01T04:53:21;93584.06;;;16.70;100.00
11038;BME280;5572;49.540;11.932;2023-08-01T04:55:47;93572.72;;;16.79;100.00
11038;BME280;5572;49.540;11.932;2023-08-01T04:58:14;93569.22;;;16.78;100.00
11038;BME280;5572;49.540;11.932;2023-08-01T05:00:42;93560.66;;;16.80;100.00
11038;BME280;5572;49.540;11.932;2023-08-01T05:03:09;93547.00;;;16.80;100.00
11038;BME280;5572;49.540;11.932;2023-08-01T05:05:36;93541.59;;;16.73;100.00
11038;BME280;5572;49.540;11.932;2023-08-01T05:08:03;93525.28;;;16.66;100.00
11038;BME280;5572;49.540;11.932;2023-08-01T05:10:30;93514.72;;;16.71;100.00
11038;BME280;5572;49.540;11.932;2023-08-01T05:12:56;93492.13;;;16.71;100.00
11038;BME280;5572;49.540;11.932;2023-08-01T05:15:23;93492.84;;;16.75;100.00
11038;BME280;5572;49.540;11.932;2023-08-01T05:17:50;93493.25;;;16.77;100.00
11038;BME280;5572;49.540;11.932;2023-08-01T05:20:16;93492.06;;;16.78;100.00
11038;BME280;5572;49.540;11.932;2023-08-01T05:22:44;93464.06;;;16.70;100.00
11038;BME280;5572;49.540;11.932;2023-08-01T05:25:11;93460.16;;;16.71;100.00
11038;BME280;5572;49.540;11.932;2023-08-01T05:27:38;93450.81;;;16.72;100.00
11038;BME280;5572;49.540;11.932;2023-08-01T05:30:05;93434.31;;;16.86;100.00
11038;BME280;5572;49.540;11.932;2023-08-01T05:32:32;93410.91;;;16.89;100.00
11038;BME280;5572;49.540;11.932;2023-08-01T05:34:59;93397.63;;;16.91;100.00
11038;BME280;5572;49.540;11.932;2023-08-01T05:37:25;93383.53;;;16.96;100.00
11038;BME280;5572;49.540;11.932;2023-08-01T05:39:53;93391.63;;;17.06;100.00
11038;BME280;5572;49.540;11.932;2023-08-01T05:42:20;93393.19;;;17.04;100.00
11038;BME280;5572;49.540;11.932;2023-08-01T05:44:46;93383.06;;;17.04;100.00
11038;BME280;5572;49.540;11.932;2023-08-01T05:47:13;93400.50;;;17.14;100.00
11038;BME280;5572;49.540;11.932;2023-08-01T05:49:40;93387.31;;;17.09;100.00
11038;BME280;5572;49.540;11.932;2023-08-01T05:52:07;93390.69;;;17.20;100.00
11038;BME280;5572;49.540;11.932;2023-08-01T05:54:34;93402.84;;;17.15;100.00
11038;BME280;5572;49.540;11.932;2023-08-01T05:57:02;93403.16;;;17.21;100.00
11038;BME280;5572;49.540;11.932;2023-08-01T05:59:28;93401.94;;;17.25;100.00
11038;BME280;5572;49.540;11.932;2023-08-01T06:01:55;93397.72;;;17.17;100.00
11038;BME280;5572;49.540;11.932;2023-08-01T06:04:22;93420.69;;;17.23;100.00
11038;BME280;5572;49.540;11.932;2023-08-01T06:06:48;93413.25;;;17.23;100.00
11038;BME280;5572;49.540;11.932;2023-08-01T06:09:15;93401.50;;;17.30;100.00
11038;BME280;5572;49.540;11.932;2023-08-01T06:11:42;93402.00;;;17.22;100.00
11038;BME280;5572;49.540;11.932;2023-08-01T06:14:10;93403.84;;;17.31;100.00
11038;BME280;5572;49.540;11.932;2023-08-01T06:16:37;93407.91;;;17.50;100.00
11038;BME280;5572;49.540;11.932;2023-08-01T06:19:03;93413.84;;;17.45;100.00
11038;BME280;5572;49.540;11.932;2023-08-01T06:21:30;93414.28;;;17.40;100.00
11038;BME280;5572;49.540;11.932;2023-08-01T06:23:57;93399.22;;;17.58;100.00
11038;BME280;5572;49.540;11.932;2023-08-01T06:26:23;93413.78;;;17.48;100.00
11038;BME280;5572;49.540;11.932;2023-08-01T06:28:50;93405.38;;;17.32;100.00
11038;BME280;5572;49.540;11.932;2023-08-01T06:31:19;93410.44;;;17.34;100.00
11038;BME280;5572;49.540;11.932;2023-08-01T06:33:46;93436.97;;;17.33;100.00
11038;BME280;5572;49.540;11.932;2023-08-01T06:36:13;93419.63;;;17.50;100.00
11038;BME280;5572;49.540;11.932;2023-08-01T06:38:41;93425.16;;;17.43;100.00
11038;BME280;5572;49.540;11.932;2023-08-01T06:41:08;93427.13;;;17.43;100.00
11038;BME280;5572;49.540;11.932;2023-08-01T06:43:35;93416.00;;;17.60;100.00
11038;BME280;5572;49.540;11.932;2023-08-01T06:46:02;93423.06;;;17.54;100.00
11038;BME280;5572;49.540;11.932;2023-08-01T06:48:31;93422.31;;;17.54;100.00
11038;BME280;5572;49.540;11.932;2023-08-01T06:50:59;93410.44;;;17.67;100.00
11038;BME280;5572;49.540;11.932;2023-08-01T06:53:26;93413.59;;;17.62;100.00
11038;BME280;5572;49.540;11.932;2023-08-01T06:55:53;93407.97;;;17.76;100.00
11038;BME280;5572;49.540;11.932;2023-08-01T06:58:19;93404.75;;;17.85;100.00
11038;BME280;5572;49.540;11.932;2023-08-01T07:00:46;93395.69;;;17.91;100.00
11038;BME280;5572;49.540;11.932;2023-08-01T07:03:12;93399.66;;;17.87;100.00
11038;BME280;5572;49.540;11.932;2023-08-01T07:05:40;93394.06;;;17.94;100.00
11038;BME280;5572;49.540;11.932;2023-08-01T07:08:07;93385.75;;;17.74;100.00
11038;BME280;5572;49.540;11.932;2023-08-01T07:10:34;93380.84;;;17.89;100.00
11038;BME280;5572;49.540;11.932;2023-08-01T07:13:01;93380.09;;;17.88;100.00
11038;BME280;5572;49.540;11.932;2023-08-01T07:15:29;93382.41;;;17.90;100.00
11038;BME280;5572;49.540;11.932;2023-08-01T07:17:56;93389.53;;;17.84;100.00
11038;BME280;5572;49.540;11.932;2023-08-01T07:20:22;93400.91;;;17.79;100.00
11038;BME280;5572;49.540;11.932;2023-08-01T07:22:50;93415.72;;;17.81;100.00
11038;BME280;5572;49.540;11.932;2023-08-01T07:25:17;93402.41;;;17.83;100.00
11038;BME280;5572;49.540;11.932;2023-08-01T07:27:44;93413.69;;;17.85;100.00
11038;BME280;5572;49.540;11.932;2023-08-01T07:30:11;93406.59;;;17.91;100.00
11038;BME280;5572;49.540;11.932;2023-08-01T07:32:37;93399.22;;;17.88;100.00
11038;BME280;5572;49.540;11.932;2023-08-01T07:35:05;93400.31;;;17.94;100.00
11038;BME280;5572;49.540;11.932;2023-08-01T07:37:33;93382.34;;;17.93;100.00
11038;BME280;5572;49.540;11.932;2023-08-01T07:40:00;93370.91;;;18.02;100.00
11038;BME280;5572;49.540;11.932;2023-08-01T07:42:27;93358.22;;;18.14;100.00
11038;BME280;5572;49.540;11.932;2023-08-01T07:44:53;93344.63;;;18.11;100.00
11038;BME280;5572;49.540;11.932;2023-08-01T07:47:21;93327.38;;;18.14;100.00
11038;BME280;5572;49.540;11.932;2023-08-01T07:49:49;93323.69;;;18.01;100.00
11038;BME280;5572;49.540;11.932;2023-08-01T07:52:15;93313.25;;;17.93;100.00
11038;BME280;5572;49.540;11.932;2023-08-01T07:54:42;93311.25;;;17.97;100.00
11038;BME280;5572;49.540;11.932;2023-08-01T07:57:10;93307.75;;;17.96;100.00
11038;BME280;5572;49.540;11.932;2023-08-01T07:59:37;93300.34;;;17.93;100.00
11038;BME280;5572;49.540;11.932;2023-08-01T08:02:04;93287.59;;;17.87;100.00
11038;BME280;5572;49.540;11.932;2023-08-01T08:04:30;93275.13;;;17.86;100.00
11038;BME280;5572;49.540;11.932;2023-08-01T08:06:57;93285.00;;;17.76;100.00
11038;BME280;5572;49.540;11.932;2023-08-01T08:09:25;93266.13;;;17.85;100.00
11038;BME280;5572;49.540;11.932;2023-08-01T08:11:51;93273.50;;;17.88;100.00
11038;BME280;5572;49.540;11.932;2023-08-01T08:14:19;93271.16;;;17.90;100.00
11038;BME280;5572;49.540;11.932;2023-08-01T08:16:46;93271.66;;;17.82;100.00
11038;BME280;5572;49.540;11.932;2023-08-01T08:19:13;93264.81;;;17.70;100.00
11038;BME280;5572;49.540;11.932;2023-08-01T08:21:39;93274.91;;;17.73;100.00
11038;BME280;5572;49.540;11.932;2023-08-01T08:24:06;93278.56;;;17.63;100.00
11038;BME280;5572;49.540;11.932;2023-08-01T08:26:32;93302.75;;;17.65;100.00
11038;BME280;5572;49.540;11.932;2023-08-01T08:29:02;93307.06;;;17.62;100.00
11038;BME280;5572;49.540;11.932;2023-08-01T08:31:31;93324.66;;;17.61;100.00
11038;BME280;5572;49.540;11.932;2023-08-01T08:33:58;93373.41;;;17.33;100.00
11038;BME280;5572;49.540;11.932;2023-08-01T08:36:24;93398.69;;;17.40;100.00
11038;BME280;5572;49.540;11.932;2023-08-01T08:38:51;93418.06;;;17.49;100.00
11038;BME280;5572;49.540;11.932;2023-08-01T08:41:19;93451.16;;;17.55;100.00
11038;BME280;5572;49.540;11.932;2023-08-01T08:43:46;93467.72;;;17.41;100.00
11038;BME280;5572;49.540;11.932;2023-08-01T08:46:14;93463.38;;;17.43;100.00
11038;BME280;5572;49.540;11.932;2023-08-01T08:48:42;93471.22;;;17.41;100.00
11038;BME280;5572;49.540;11.932;2023-08-01T08:51:11;93476.56;;;17.52;100.00
11038;BME280;5572;49.540;11.932;2023-08-01T08:53:37;93475.72;;;17.58;100.00
11038;BME280;5572;49.540;11.932;2023-08-01T08:56:07;93477.91;;;17.70;100.00
11038;BME280;5572;49.540;11.932;2023-08-01T08:58:34;93488.53;;;17.65;100.00
11038;BME280;5572;49.540;11.932;2023-08-01T09:01:04;93459.41;;;17.85;100.00
11038;BME280;5572;49.540;11.932;2023-08-01T09:03:31;93460.31;;;17.75;100.00
11038;BME280;5572;49.540;11.932;2023-08-01T09:06:02;93450.34;;;17.88;100.00
11038;BME280;5572;49.540;11.932;2023-08-01T09:08:29;93462.63;;;17.76;100.00
11038;BME280;5572;49.540;11.932;2023-08-01T09:10:58;93469.16;;;17.82;100.00
11038;BME280;5572;49.540;11.932;2023-08-01T09:13:24;93493.47;;;17.73;100.00
11038;BME280;5572;49.540;11.932;2023-08-01T09:15:51;93483.72;;;17.72;100.00
11038;BME280;5572;49.540;11.932;2023-08-01T09:18:17;93474.72;;;17.75;100.00
11038;BME280;5572;49.540;11.932;2023-08-01T09:20:44;93479.34;;;17.82;100.00
11038;BME280;5572;49.540;11.932;2023-08-01T09:23:12;93463.78;;;17.75;100.00
11038;BME280;5572;49.540;11.932;2023-08-01T09:25:38;93456.78;;;17.74;100.00
11038;BME280;5572;49.540;11.932;2023-08-01T09:28:14;93442.25;;;17.81;100.00
11038;BME280;5572;49.540;11.932;2023-08-01T09:30:45;93400.94;;;17.75;100.00
11038;BME280;5572;49.540;11.932;2023-08-01T09:33:11;93371.25;;;17.77;100.00
11038;BME280;5572;49.540;11.932;2023-08-01T09:35:38;93334.44;;;17.85;100.00
11038;BME280;5572;49.540;11.932;2023-08-01T09:38:04;93323.78;;;17.94;100.00
11038;BME280;5572;49.540;11.932;2023-08-01T09:40:37;93289.09;;;18.14;100.00
11038;BME280;5572;49.540;11.932;2023-08-01T09:43:03;93253.69;;;18.07;100.00
11038;BME280;5572;49.540;11.932;2023-08-01T09:45:30;93226.50;;;18.19;100.00
11038;BME280;5572;49.540;11.932;2023-08-01T09:47:56;93273.41;;;18.18;100.00
11038;BME280;5572;49.540;11.932;2023-08-01T09:50:23;93284.31;;;18.21;100.00
11038;BME280;5572;49.540;11.932;2023-08-01T09:52:50;93286.94;;;18.02;100.00
11038;BME280;5572;49.540;11.932;2023-08-01T09:55:18;93269.25;;;18.10;100.00
11038;BME280;5572;49.540;11.932;2023-08-01T09:57:46;93260.34;;;18.06;100.00
11038;BME280;5572;49.540;11.932;2023-08-01T10:00:14;93231.94;;;18.23;100.00
11038;BME280;5572;49.540;11.932;2023-08-01T10:02:41;93195.59;;;18.45;100.00
11038;BME280;5572;49.540;11.932;2023-08-01T10:05:08;93190.63;;;18.60;100.00
11038;BME280;5572;49.540;11.932;2023-08-01T10:07:36;93181.22;;;18.80;100.00
11038;BME280;5572;49.540;11.932;2023-08-01T10:10:03;93203.78;;;18.26;100.00
11038;BME280;5572;49.540;11.932;2023-08-01T10:12:31;93183.81;;;18.48;100.00
11038;BME280;5572;49.540;11.932;2023-08-01T10:14:59;93185.06;;;18.44;100.00
11038;BME280;5572;49.540;11.932;2023-08-01T10:17:25;93160.63;;;18.56;100.00
11038;BME280;5572;49.540;11.932;2023-08-01T10:19:52;93137.69;;;18.86;100.00
11038;BME280;5572;49.540;11.932;2023-08-01T10:22:21;93131.06;;;19.02;100.00
11038;BME280;5572;49.540;11.932;2023-08-01T10:24:48;93136.00;;;18.92;100.00
11038;BME280;5572;49.540;11.932;2023-08-01T10:27:15;93132.56;;;18.88;100.00
11038;BME280;5572;49.540;11.932;2023-08-01T10:29:44;93158.28;;;18.55;100.00
11038;BME280;5572;49.540;11.932;2023-08-01T10:32:12;93147.22;;;18.42;100.00
11038;BME280;5572;49.540;11.932;2023-08-01T10:34:39;93152.28;;;18.21;100.00
11038;BME280;5572;49.540;11.932;2023-08-01T10:37:05;93151.69;;;18.33;100.00
11038;BME280;5572;49.540;11.932;2023-08-01T10:39:32;93157.50;;;18.35;100.00
11038;BME280;5572;49.540;11.932;2023-08-01T10:41:58;93142.78;;;18.29;100.00
11038;BME280;5572;49.540;11.932;2023-08-01T10:44:25;93158.06;;;18.46;100.00
11038;BME280;5572;49.540;11.932;2023-08-01T10:46:51;93173.25;;;18.27;100.00
11038;BME280;5572;49.540;11.932;2023-08-01T10:49:20;93167.16;;;18.20;100.00
11038;BME280;5572;49.540;11.932;2023-08-01T10:51:47;93160.66;;;18.33;100.00
11038;BME280;5572;49.540;11.932;2023-08-01T10:54:20;93131.91;;;18.64;100.00
11038;BME280;5572;49.540;11.932;2023-08-01T10:56:48;93127.13;;;19.03;100.00
11038;BME280;5572;49.540;11.932;2023-08-01T10:59:14;93135.84;;;18.99;100.00
11038;BME280;5572;49.540;11.932;2023-08-01T11:01:45;93146.34;;;18.84;100.00
11038;BME280;5572;49.540;11.932;2023-08-01T11:04:15;93136.38;;;18.74;100.00
11038;BME280;5572;49.540;11.932;2023-08-01T11:06:46;93120.53;;;19.01;100.00
11038;BME280;5572;49.540;11.932;2023-08-01T11:09:16;93132.22;;;18.86;100.00
11038;BME280;5572;49.540;11.932;2023-08-01T11:11:43;93145.78;;;18.54;100.00
11038;BME280;5572;49.540;11.932;2023-08-01T11:14:10;93157.34;;;18.42;100.00
11038;BME280;5572;49.540;11.932;2023-08-01T11:16:37;93139.97;;;18.32;100.00
11038;BME280;5572;49.540;11.932;2023-08-01T11:19:03;93141.81;;;18.39;100.00
11038;BME280;5572;49.540;11.932;2023-08-01T11:21:30;93136.00;;;18.56;100.00
11038;BME280;5572;49.540;11.932;2023-08-01T11:23:58;93119.56;;;18.92;100.00
11038;BME280;5572;49.540;11.932;2023-08-01T11:26:24;93134.13;;;18.69;100.00
11038;BME280;5572;49.540;11.932;2023-08-01T11:28:50;93133.22;;;18.76;100.00
11038;BME280;5572;49.540;11.932;2023-08-01T11:31:17;93114.72;;;18.99;100.00
11038;BME280;5572;49.540;11.932;2023-08-01T11:33:43;93109.88;;;18.71;100.00
11038;BME280;5572;49.540;11.932;2023-08-01T11:36:20;93098.44;;;19.11;100.00
11038;BME280;5572;49.540;11.932;2023-08-01T11:38:47;93119.81;;;19.16;100.00
11038;BME280;5572;49.540;11.932;2023-08-01T11:41:16;93120.72;;;19.29;100.00
11038;BME280;5572;49.540;11.932;2023-08-01T11:43:42;93085.91;;;19.74;100.00
11038;BME280;5572;49.540;11.932;2023-08-01T11:46:09;93086.25;;;19.76;100.00
11038;BME280;5572;49.540;11.932;2023-08-01T11:48:36;93120.88;;;19.54;100.00
11038;BME280;5572;49.540;11.932;2023-08-01T11:51:02;93107.34;;;19.63;100.00
11038;BME280;5572;49.540;11.932;2023-08-01T11:53:29;93131.47;;;19.20;100.00
11038;BME280;5572;49.540;11.932;2023-08-01T11:55:57;93102.81;;;19.41;100.00
11038;BME280;5572;49.540;11.932;2023-08-01T11:58:31;93092.97;;;19.59;100.00
11038;BME280;5572;49.540;11.932;2023-08-01T12:01:04;93107.00;;;19.29;100.00
11038;BME280;5572;49.540;11.932;2023-08-01T12:03:30;93155.19;;;18.72;100.00
11038;BME280;5572;49.540;11.932;2023-08-01T12:06:03;93128.03;;;19.16;100.00
11038;BME280;5572;49.540;11.932;2023-08-01T12:08:31;93111.19;;;19.50;100.00
11038;BME280;5572;49.540;11.932;2023-08-01T12:10:58;93129.28;;;19.47;100.00
11038;BME280;5572;49.540;11.932;2023-08-01T12:13:25;93130.63;;;19.55;100.00
11038;BME280;5572;49.540;11.932;2023-08-01T12:15:54;93125.59;;;19.86;100.00
11038;BME280;5572;49.540;11.932;2023-08-01T12:18:21;93124.22;;;20.22;100.00
11038;BME280;5572;49.540;11.932;2023-08-01T12:20:48;93153.75;;;19.86;100.00
11038;BME280;5572;49.540;11.932;2023-08-01T12:23:14;93168.41;;;19.64;100.00
11038;BME280;5572;49.540;11.932;2023-08-01T12:25:41;93219.72;;;19.28;100.00
11038;BME280;5572;49.540;11.932;2023-08-01T12:28:07;93266.69;;;19.46;100.00
11038;BME280;5572;49.540;11.932;2023-08-01T12:30:34;93287.34;;;19.50;100.00
11038;BME280;5572;49.540;11.932;2023-08-01T12:33:01;93295.59;;;19.47;100.00
11038;BME280;5572;49.540;11.932;2023-08-01T12:35:28;93330.19;;;19.41;100.00
11038;BME280;5572;49.540;11.932;2023-08-01T12:37:54;93329.19;;;19.51;100.00
11038;BME280;5572;49.540;11.932;2023-08-01T12:40:21;93287.63;;;19.36;100.00
11038;BME280;5572;49.540;11.932;2023-08-01T12:42:48;93267.19;;;19.41;100.00
11038;BME280;5572;49.540;11.932;2023-08-01T12:45:14;93249.91;;;19.44;100.00
11038;BME280;5572;49.540;11.932;2023-08-01T12:47:40;93289.63;;;18.94;100.00
11038;BME280;5572;49.540;11.932;2023-08-01T12:50:09;93288.16;;;18.89;100.00